McPherson, Kansas
Current Conditions -  °F | °C
As of 11:52 PM on Sunday 19 Oct 2014 (Local Time) from KHUT Reporting Station
Clear Clear  
Wind Chill: 58°   Ceiling: Unl
Heat Index: 58°   Visibility: 10mi
Dew Point: 52°   Wind: 5mph
Humidity: 81%   Direction: 140°SE
Pressure: 30.02"   Gusts: NA
Location:  38.37°N, 97.67°W
Report Text: KHUT 200452Z AUTO 14004KT 10SM CLR 14/11 A3002 RMK AO2 SLP152 T01440111
Loading
Personal Weather Stations






























Interactive Weather Map
Tropical Storm Tracking
New forecast layout! Learn more

10-Day Weather Forecast

Advertisements
Track Severe Weather on mobile